createdAt,value
2022-11-12T00:04:53.886Z,19.70
2022-11-12T00:11:16.951Z,19.67
2022-11-12T00:17:40.261Z,19.64
2022-11-12T00:24:02.992Z,19.61
2022-11-12T00:30:26.166Z,19.58
2022-11-12T00:36:49.365Z,19.55
2022-11-12T00:43:12.118Z,19.52
2022-11-12T00:49:34.817Z,19.50
2022-11-12T00:55:57.722Z,19.46
2022-11-12T01:02:20.293Z,19.44
2022-11-12T01:08:42.917Z,19.41
2022-11-12T01:15:06.259Z,19.39
2022-11-12T01:21:29.116Z,19.37
2022-11-12T01:27:51.557Z,19.34
2022-11-12T01:34:14.662Z,19.32
2022-11-12T01:40:37.655Z,19.30
2022-11-12T01:47:00.541Z,19.27
2022-11-12T01:53:26.194Z,19.25
2022-11-12T01:59:49.015Z,19.23
2022-11-12T02:06:11.827Z,19.21
2022-11-12T02:12:34.580Z,19.19
2022-11-12T02:18:57.656Z,19.16
2022-11-12T02:25:20.525Z,19.15
2022-11-12T02:31:43.548Z,19.13
2022-11-12T02:38:06.472Z,19.11
2022-11-12T02:44:29.779Z,19.08
2022-11-12T02:50:46.128Z,19.08
2022-11-12T02:57:08.789Z,19.05
2022-11-12T03:03:31.636Z,19.03
2022-11-12T03:09:54.326Z,19.02
2022-11-12T03:16:17.029Z,19.00
2022-11-12T03:22:39.887Z,18.99
2022-11-12T03:29:02.746Z,18.97
2022-11-12T03:35:25.332Z,18.95
2022-11-12T03:41:48.083Z,18.94
2022-11-12T03:48:10.982Z,18.92
2022-11-12T03:54:33.731Z,18.90
2022-11-12T04:00:56.676Z,18.88
2022-11-12T04:07:17.765Z,18.87
2022-11-12T04:13:49.468Z,18.85
2022-11-12T04:20:10.516Z,18.83
2022-11-12T04:26:45.557Z,18.82
2022-11-12T04:33:08.622Z,18.79
2022-11-12T04:39:31.520Z,18.78
2022-11-12T04:45:54.252Z,18.76
2022-11-12T04:52:26.593Z,18.76
2022-11-12T04:58:49.582Z,18.73
2022-11-12T05:05:12.462Z,18.71
2022-11-12T05:11:35.420Z,18.70
2022-11-12T05:17:58.172Z,18.69
2022-11-12T05:24:40.553Z,18.67
2022-11-12T05:31:03.518Z,18.65
2022-11-12T05:37:26.581Z,18.64
2022-11-12T05:43:49.469Z,18.65
2022-11-12T05:50:12.440Z,18.71
2022-11-12T05:56:35.513Z,18.84
2022-11-12T06:02:58.636Z,19.07
2022-11-12T06:09:21.620Z,19.34
2022-11-12T06:15:39.416Z,19.63
2022-11-12T06:22:02.631Z,19.88
2022-11-12T06:28:26.036Z,20.11
2022-11-12T06:34:49.121Z,20.33
2022-11-12T06:41:12.160Z,20.54
2022-11-12T06:47:34.856Z,20.69
2022-11-12T06:54:00.707Z,20.82
2022-11-12T07:00:23.699Z,20.97
2022-11-12T07:06:46.876Z,21.11
2022-11-12T07:13:09.945Z,21.24
2022-11-12T07:19:25.671Z,21.36
2022-11-12T07:25:48.335Z,21.46
2022-11-12T07:32:11.022Z,21.57
2022-11-12T07:38:33.771Z,21.67
2022-11-12T07:44:56.662Z,21.79
2022-11-12T07:51:19.452Z,21.89
2022-11-12T07:57:42.302Z,21.97
2022-11-12T08:04:04.931Z,22.04
2022-11-12T08:10:27.535Z,22.10
2022-11-12T08:16:50.225Z,22.09
2022-11-12T08:23:12.786Z,22.05
2022-11-12T08:29:35.658Z,22.01
2022-11-12T08:35:58.249Z,21.93
2022-11-12T08:42:21.006Z,21.84
2022-11-12T08:48:42.727Z,21.76
2022-11-12T08:55:05.548Z,21.68
2022-11-12T09:01:28.134Z,21.61
2022-11-12T09:07:51.423Z,21.54
2022-11-12T09:14:14.407Z,21.47
2022-11-12T09:20:37.161Z,21.40
2022-11-12T09:26:59.815Z,21.33
2022-11-12T09:33:22.897Z,21.25
2022-11-12T09:39:45.376Z,21.17
2022-11-12T09:46:27.604Z,21.07
2022-11-12T09:52:51.293Z,20.99
2022-11-12T09:59:14.087Z,20.92
2022-11-12T10:05:58.405Z,20.86
2022-11-12T10:12:26.217Z,20.88
2022-11-12T10:18:49.567Z,20.98
2022-11-12T10:25:12.215Z,21.08
2022-11-12T10:31:35.049Z,21.14
2022-11-12T10:38:03.945Z,21.18
2022-11-12T10:44:29.921Z,21.24
2022-11-12T10:50:58.881Z,21.37
2022-11-12T10:57:21.736Z,21.54
2022-11-12T11:03:56.734Z,21.69
2022-11-12T11:10:19.578Z,21.77
2022-11-12T11:16:42.471Z,21.80
2022-11-12T11:23:22.748Z,21.81
2022-11-12T11:29:51.895Z,21.84
2022-11-12T11:36:39.367Z,21.87
2022-11-12T11:43:14.266Z,21.91
2022-11-12T11:49:40.096Z,21.91
2022-11-12T11:56:03.072Z,21.91
2022-11-12T12:02:29.328Z,21.92
2022-11-12T12:08:58.195Z,21.91
2022-11-12T12:15:21.151Z,21.88
2022-11-12T12:21:50.127Z,21.85
2022-11-12T12:28:27.250Z,21.80
2022-11-12T12:34:56.196Z,21.71
2022-11-12T12:41:18.341Z,21.62
2022-11-12T12:47:44.220Z,21.53
2022-11-12T12:54:09.800Z,21.45
2022-11-12T13:00:33.506Z,21.38
2022-11-12T13:07:10.992Z,21.31
2022-11-12T13:13:43.283Z,21.22
2022-11-12T13:20:08.966Z,21.15
2022-11-12T13:26:31.705Z,21.07
2022-11-12T13:32:51.592Z,21.01
2022-11-12T13:39:14.178Z,20.94
2022-11-12T13:45:36.823Z,20.88
2022-11-12T13:51:52.211Z,20.82
2022-11-12T13:58:15.111Z,20.77
2022-11-12T14:04:46.839Z,20.73
2022-11-12T14:11:17.186Z,20.72
2022-11-12T14:17:49.260Z,20.78
2022-11-12T14:24:18.314Z,20.93
2022-11-12T14:30:56.938Z,21.11
2022-11-12T14:37:20.108Z,21.27
2022-11-12T14:43:43.073Z,21.46
2022-11-12T14:50:21.578Z,21.64
2022-11-12T14:56:45.002Z,21.80
2022-11-12T15:03:10.926Z,21.87
2022-11-12T15:09:36.736Z,21.88
2022-11-12T15:16:05.410Z,21.86
2022-11-12T15:22:37.223Z,21.81
2022-11-12T15:29:12.524Z,21.74
2022-11-12T15:35:41.534Z,21.67
2022-11-12T15:42:04.455Z,21.60
2022-11-12T15:48:27.371Z,21.54
2022-11-12T15:54:50.159Z,21.47
2022-11-12T16:01:16.134Z,21.41
2022-11-12T16:07:38.959Z,21.34
2022-11-12T16:13:57.577Z,21.27
2022-11-12T16:20:13.470Z,21.22
2022-11-12T16:26:36.314Z,21.15
2022-11-12T16:32:58.990Z,21.10
2022-11-12T16:39:21.673Z,21.04
2022-11-12T16:45:44.366Z,20.99
2022-11-12T16:52:07.238Z,20.93
2022-11-12T16:58:29.782Z,20.88
2022-11-12T17:04:52.756Z,20.83
2022-11-12T17:11:15.531Z,20.77
2022-11-12T17:17:38.754Z,20.73
2022-11-12T17:24:01.510Z,20.71
2022-11-12T17:30:24.438Z,20.79
2022-11-12T17:36:47.163Z,20.92
2022-11-12T17:43:10.155Z,21.11
2022-11-12T17:49:24.000Z,21.31
2022-11-12T17:55:46.793Z,21.49
2022-11-12T18:02:09.666Z,21.67
2022-11-12T18:08:32.520Z,21.81
2022-11-12T18:14:55.929Z,21.90
2022-11-12T18:21:18.696Z,21.92
2022-11-12T18:27:41.486Z,21.90
2022-11-12T18:34:04.428Z,21.88
2022-11-12T18:40:27.418Z,21.83
2022-11-12T18:46:56.271Z,21.76
2022-11-12T18:53:19.226Z,21.70
2022-11-12T18:59:35.570Z,21.64
2022-11-12T19:05:58.642Z,21.58
2022-11-12T19:12:21.526Z,21.54
2022-11-12T19:18:44.266Z,21.50
2022-11-12T19:25:06.845Z,21.45
2022-11-12T19:31:29.641Z,21.41
2022-11-12T19:37:52.180Z,21.37
2022-11-12T19:44:15.318Z,21.35
2022-11-12T19:50:37.929Z,21.36
2022-11-12T19:56:43.543Z,21.42
2022-11-12T20:03:06.136Z,21.51
2022-11-12T20:09:29.156Z,21.65
2022-11-12T20:15:51.727Z,21.80
2022-11-12T20:22:14.823Z,21.96
2022-11-12T20:28:37.340Z,22.09
2022-11-12T20:34:59.954Z,22.22
2022-11-12T20:41:22.500Z,22.34
2022-11-12T20:47:45.098Z,22.40
2022-11-12T20:54:08.105Z,22.47
2022-11-12T21:00:31.169Z,22.53
2022-11-12T21:07:05.107Z,22.59
2022-11-12T21:13:28.207Z,22.67
2022-11-12T21:19:50.880Z,22.71
2022-11-12T21:26:16.503Z,22.73
2022-11-12T21:32:37.979Z,22.76
2022-11-12T21:39:00.829Z,22.76
2022-11-12T21:45:23.608Z,22.73
2022-11-12T21:51:38.066Z,22.70
2022-11-12T21:58:00.946Z,22.65
2022-11-12T22:04:23.943Z,22.59
2022-11-12T22:10:46.801Z,22.53
2022-11-12T22:17:09.583Z,22.46
2022-11-12T22:23:32.355Z,22.39
2022-11-12T22:29:55.419Z,22.33
2022-11-12T22:36:18.136Z,22.24
2022-11-12T22:42:40.891Z,22.16
2022-11-12T22:49:03.748Z,22.09
2022-11-12T22:55:26.212Z,22.01
2022-11-12T23:01:49.124Z,21.94
2022-11-12T23:08:12.275Z,21.86
2022-11-12T23:14:35.156Z,21.79
2022-11-12T23:20:57.549Z,21.71
2022-11-12T23:27:20.088Z,21.65
2022-11-12T23:33:43.104Z,21.57
2022-11-12T23:40:05.940Z,21.51
2022-11-12T23:46:28.517Z,21.45
2022-11-12T23:52:51.427Z,21.38
2022-11-12T23:59:14.278Z,21.32
